createdAt,value
2023-03-30T00:01:38.472Z,7.25
2023-03-30T00:04:27.458Z,7.85
2023-03-30T00:07:13.369Z,10.38
2023-03-30T00:10:04.519Z,6.38
2023-03-30T00:12:51.065Z,7.20
2023-03-30T00:15:36.837Z,5.78
2023-03-30T00:18:25.176Z,8.10
2023-03-30T00:21:11.301Z,5.30
2023-03-30T00:23:58.074Z,6.53
2023-03-30T00:26:43.629Z,9.38
2023-03-30T00:29:29.452Z,7.43
2023-03-30T00:32:15.082Z,10.27
2023-03-30T00:35:01.676Z,4.93
2023-03-30T00:37:49.502Z,10.00
2023-03-30T00:40:35.967Z,5.78
2023-03-30T00:43:24.023Z,12.23
2023-03-30T00:46:09.804Z,7.20
2023-03-30T00:48:58.148Z,5.93
2023-03-30T00:51:43.906Z,17.08
2023-03-30T00:54:32.188Z,6.20
2023-03-30T00:57:19.344Z,8.70
2023-03-30T01:00:08.788Z,8.02
2023-03-30T01:02:59.530Z,9.60
2023-03-30T01:05:46.173Z,12.40
2023-03-30T01:08:35.533Z,9.45
2023-03-30T01:11:21.531Z,8.60
2023-03-30T01:14:10.114Z,7.47
2023-03-30T01:17:13.749Z,16.15
2023-03-30T01:20:28.610Z,11.10
2023-03-30T01:23:27.464Z,5.63
2023-03-30T01:26:31.780Z,10.82
2023-03-30T01:29:49.159Z,7.22
2023-03-30T01:33:23.108Z,14.57
2023-03-30T01:36:38.903Z,6.85
2023-03-30T01:39:57.417Z,7.85
2023-03-30T01:43:13.098Z,10.60
2023-03-30T01:46:03.254Z,10.23
2023-03-30T01:49:08.789Z,7.22
2023-03-30T01:52:08.592Z,8.43
2023-03-30T01:55:25.865Z,6.90
2023-03-30T01:58:21.251Z,5.07
2023-03-30T02:01:08.242Z,11.70
2023-03-30T02:03:57.721Z,11.48
2023-03-30T02:06:50.750Z,8.45
2023-03-30T02:09:41.447Z,7.32
2023-03-30T02:12:30.129Z,8.93
2023-03-30T02:15:17.751Z,8.05
2023-03-30T02:18:03.559Z,4.30
2023-03-30T02:20:51.997Z,15.15
2023-03-30T02:23:40.972Z,8.35
2023-03-30T02:26:27.584Z,6.50
2023-03-30T02:29:20.848Z,10.10
2023-03-30T02:32:09.691Z,12.05
2023-03-30T02:34:58.867Z,10.10
2023-03-30T02:38:24.553Z,11.90
2023-03-30T02:42:01.475Z,9.43
2023-03-30T02:47:58.052Z,10.63
2023-03-30T02:50:51.739Z,12.02
2023-03-30T02:54:03.168Z,12.02
2023-03-30T02:57:43.709Z,9.45
2023-03-30T03:01:06.484Z,9.10
2023-03-30T03:04:05.109Z,12.68
2023-03-30T03:06:59.199Z,13.48
2023-03-30T03:09:45.062Z,12.70
2023-03-30T03:12:30.936Z,10.50
2023-03-30T03:15:16.493Z,9.68
2023-03-30T03:18:19.318Z,12.00
2023-03-30T03:21:05.260Z,6.57
2023-03-30T03:23:51.584Z,7.65
2023-03-30T03:26:40.065Z,6.75
2023-03-30T03:29:25.481Z,11.57
2023-03-30T03:32:11.204Z,5.43
2023-03-30T03:35:02.226Z,9.45
2023-03-30T03:37:47.820Z,8.32
2023-03-30T03:40:33.392Z,8.18
2023-03-30T03:43:19.868Z,11.65
2023-03-30T03:46:05.382Z,6.47
2023-03-30T03:48:51.284Z,10.60
2023-03-30T03:51:37.223Z,9.75
2023-03-30T03:54:22.534Z,8.52
2023-03-30T03:57:10.306Z,6.57
2023-03-30T03:59:57.960Z,11.15
2023-03-30T04:02:44.665Z,12.00
2023-03-30T04:05:31.756Z,11.10
2023-03-30T04:08:19.266Z,15.60
2023-03-30T04:11:07.909Z,18.13
2023-03-30T04:14:22.640Z,17.58
2023-03-30T04:17:35.023Z,23.52
2023-03-30T04:20:39.781Z,22.42
2023-03-30T04:23:52.134Z,13.88
2023-03-30T04:26:37.789Z,19.80
2023-03-30T04:29:48.479Z,15.82
2023-03-30T04:33:04.052Z,22.83
2023-03-30T04:36:13.694Z,27.88
2023-03-30T04:39:13.855Z,25.20
2023-03-30T04:42:20.013Z,26.23
2023-03-30T04:45:30.242Z,38.70
2023-03-30T04:48:34.685Z,26.20
2023-03-30T04:51:30.244Z,32.47
2023-03-30T04:54:51.154Z,28.45
2023-03-30T04:57:39.636Z,35.60
2023-03-30T05:00:44.693Z,29.60
2023-03-30T05:03:49.168Z,25.38
2023-03-30T05:06:57.981Z,33.83
2023-03-30T05:10:02.875Z,46.03
2023-03-30T05:13:07.055Z,34.90
2023-03-30T05:16:09.264Z,31.88
2023-03-30T05:19:06.851Z,32.47
2023-03-30T05:22:30.969Z,35.35
2023-03-30T05:25:39.068Z,35.60
2023-03-30T05:28:44.685Z,27.90
2023-03-30T05:31:48.739Z,34.63
2023-03-30T05:35:05.741Z,35.30
2023-03-30T05:38:02.691Z,28.90
2023-03-30T05:41:00.280Z,35.20
2023-03-30T05:43:52.858Z,36.80
2023-03-30T05:47:00.424Z,30.27
2023-03-30T05:49:53.780Z,31.88
2023-03-30T05:52:45.049Z,34.70
2023-03-30T05:56:02.725Z,34.10
2023-03-30T05:59:10.170Z,36.65
2023-03-30T06:02:07.792Z,31.27
2023-03-30T06:04:54.710Z,23.83
2023-03-30T06:07:40.501Z,34.13
2023-03-30T06:10:26.666Z,35.30
2023-03-30T06:13:13.542Z,30.15
2023-03-30T06:16:05.795Z,35.55
2023-03-30T06:18:55.688Z,41.15
2023-03-30T06:21:42.833Z,37.80
2023-03-30T06:24:43.037Z,32.95
2023-03-30T06:27:31.767Z,29.48
2023-03-30T06:30:18.147Z,41.50
2023-03-30T06:33:08.011Z,30.92
2023-03-30T06:36:00.877Z,34.08
2023-03-30T06:38:47.028Z,35.05
2023-03-30T06:41:34.942Z,38.17
2023-03-30T06:44:23.876Z,28.70
2023-03-30T06:47:10.290Z,35.40
2023-03-30T06:49:58.985Z,39.58
2023-03-30T06:52:47.210Z,35.45
2023-03-30T06:55:33.368Z,32.10
2023-03-30T06:58:19.145Z,35.75
2023-03-30T07:01:12.954Z,41.92
2023-03-30T07:04:30.606Z,32.33
2023-03-30T07:07:31.014Z,48.80
2023-03-30T07:10:16.298Z,40.33
2023-03-30T07:13:03.485Z,42.92
2023-03-30T07:15:50.132Z,37.33
2023-03-30T07:18:36.036Z,46.50
2023-03-30T07:21:23.426Z,37.33
2023-03-30T07:24:08.877Z,42.75
2023-03-30T07:26:54.880Z,45.97
2023-03-30T07:29:40.763Z,35.00
2023-03-30T07:32:27.306Z,37.85
2023-03-30T07:35:15.966Z,44.67
2023-03-30T07:38:03.769Z,33.00
2023-03-30T07:40:54.925Z,55.13
2023-03-30T07:43:42.548Z,36.42
2023-03-30T07:46:28.136Z,36.78
2023-03-30T07:49:15.247Z,43.13
2023-03-30T07:52:01.443Z,41.30
2023-03-30T07:54:56.281Z,42.40
2023-03-30T07:57:49.950Z,41.90
2023-03-30T08:00:35.661Z,44.33
2023-03-30T08:03:39.967Z,37.60
2023-03-30T08:06:25.821Z,49.80
2023-03-30T08:09:17.317Z,41.67
2023-03-30T08:12:03.922Z,46.30
2023-03-30T08:14:50.153Z,38.60
2023-03-30T08:17:35.899Z,42.50
2023-03-30T08:20:21.546Z,44.88
2023-03-30T08:23:08.020Z,47.67
2023-03-30T08:26:00.002Z,45.85
2023-03-30T08:28:46.265Z,43.33
2023-03-30T08:31:32.992Z,43.05
2023-03-30T08:34:21.029Z,38.90
2023-03-30T08:37:06.256Z,44.05
2023-03-30T08:39:52.462Z,46.58
2023-03-30T08:42:56.943Z,44.17
2023-03-30T08:45:43.458Z,38.25
2023-03-30T08:48:33.593Z,38.90
2023-03-30T08:51:30.538Z,45.47
2023-03-30T08:54:19.453Z,44.13
2023-03-30T08:57:32.604Z,46.20
2023-03-30T09:00:25.180Z,43.15
2023-03-30T09:03:28.757Z,38.67
2023-03-30T09:06:46.240Z,48.70
2023-03-30T09:09:37.831Z,46.47
2023-03-30T09:12:44.684Z,35.78
2023-03-30T09:15:51.949Z,45.00
2023-03-30T09:18:39.442Z,50.35
2023-03-30T09:21:29.680Z,39.80
2023-03-30T09:24:23.516Z,36.88
2023-03-30T09:27:43.207Z,52.72
2023-03-30T09:30:43.135Z,45.47
2023-03-30T09:33:54.623Z,56.92
2023-03-30T09:36:54.475Z,49.58
2023-03-30T09:39:41.502Z,48.03
2023-03-30T09:42:39.466Z,56.10
2023-03-30T09:45:33.449Z,34.13
2023-03-30T09:48:19.963Z,55.88
2023-03-30T09:51:29.798Z,39.90
2023-03-30T09:54:23.841Z,53.13
2023-03-30T09:57:30.101Z,41.65
2023-03-30T10:00:39.384Z,37.17
2023-03-30T10:03:25.152Z,44.13
2023-03-30T10:06:16.215Z,50.60
2023-03-30T10:09:06.272Z,38.65
2023-03-30T10:11:54.521Z,48.47
2023-03-30T10:14:40.245Z,40.35
2023-03-30T10:17:29.872Z,41.47
2023-03-30T10:20:17.741Z,40.45
2023-03-30T10:23:15.936Z,42.70
2023-03-30T10:26:10.395Z,42.13
2023-03-30T10:29:01.094Z,44.70
2023-03-30T10:31:49.858Z,45.42
2023-03-30T10:34:41.071Z,42.42
2023-03-30T10:37:35.890Z,43.95
2023-03-30T10:40:27.212Z,35.42
2023-03-30T10:43:20.043Z,34.90
2023-03-30T10:46:19.999Z,41.72
2023-03-30T10:49:42.396Z,47.03
2023-03-30T10:52:58.929Z,34.10
2023-03-30T10:56:15.316Z,40.10
2023-03-30T10:59:38.270Z,42.50
2023-03-30T11:02:36.167Z,38.20
2023-03-30T11:05:33.144Z,46.30
2023-03-30T11:08:31.218Z,37.17
2023-03-30T11:11:21.508Z,53.50
2023-03-30T11:14:13.591Z,39.63
2023-03-30T11:17:09.197Z,33.83
2023-03-30T11:20:19.206Z,44.22
2023-03-30T11:23:29.004Z,43.25
2023-03-30T11:26:22.907Z,39.63
2023-03-30T11:29:17.836Z,41.05
2023-03-30T11:35:14.980Z,41.83
2023-03-30T11:38:17.903Z,43.85
2023-03-30T11:41:17.486Z,41.90
2023-03-30T11:44:03.191Z,45.25
2023-03-30T11:47:31.819Z,49.90
2023-03-30T11:50:52.579Z,46.60
2023-03-30T11:53:47.327Z,45.72
2023-03-30T11:57:03.586Z,44.38
2023-03-30T12:03:35.567Z,50.13
2023-03-30T12:06:33.902Z,49.90
2023-03-30T12:09:34.151Z,56.03
2023-03-30T12:12:32.704Z,45.97
2023-03-30T12:15:40.433Z,53.10
2023-03-30T12:18:58.092Z,46.75
2023-03-30T12:22:08.983Z,53.70
2023-03-30T12:25:00.278Z,47.40
2023-03-30T12:27:58.552Z,50.80
2023-03-30T12:30:59.394Z,50.03
2023-03-30T12:33:51.558Z,53.00
2023-03-30T12:36:39.909Z,54.17
2023-03-30T12:39:32.860Z,47.28
2023-03-30T12:42:27.474Z,63.05
2023-03-30T12:45:28.639Z,57.10
2023-03-30T12:48:37.711Z,46.22
2023-03-30T12:51:31.985Z,51.45
2023-03-30T12:54:37.758Z,47.72
2023-03-30T12:57:46.856Z,53.20
2023-03-30T13:00:51.206Z,45.88
2023-03-30T13:03:52.753Z,58.60
2023-03-30T13:06:48.657Z,41.10
2023-03-30T13:09:56.187Z,51.03
2023-03-30T13:12:42.816Z,41.10
2023-03-30T13:15:40.387Z,49.03
2023-03-30T13:18:41.011Z,34.03
2023-03-30T13:21:26.755Z,40.30
2023-03-30T13:24:26.440Z,39.83
2023-03-30T13:27:22.580Z,32.85
2023-03-30T13:30:08.015Z,42.08
2023-03-30T13:33:15.688Z,29.23
2023-03-30T13:36:06.987Z,43.30
2023-03-30T13:39:06.721Z,37.30
2023-03-30T13:42:16.913Z,36.25
2023-03-30T13:45:27.153Z,35.45
2023-03-30T13:48:48.607Z,34.95
2023-03-30T13:51:36.311Z,38.70
2023-03-30T13:54:27.297Z,33.03
2023-03-30T13:57:34.637Z,37.53
2023-03-30T14:00:28.327Z,37.03
2023-03-30T14:03:32.566Z,29.17
2023-03-30T14:06:23.293Z,37.42
2023-03-30T14:09:14.347Z,28.50
2023-03-30T14:12:02.594Z,35.83
2023-03-30T14:14:50.215Z,36.70
2023-03-30T14:17:35.691Z,32.33
2023-03-30T14:20:57.178Z,32.20
2023-03-30T14:24:03.914Z,27.83
2023-03-30T14:26:50.266Z,34.90
2023-03-30T14:29:47.520Z,22.83
2023-03-30T14:32:33.179Z,29.33
2023-03-30T14:35:18.755Z,35.38
2023-03-30T14:38:16.311Z,37.17
2023-03-30T14:41:07.161Z,31.63
2023-03-30T14:44:06.315Z,27.65
2023-03-30T14:46:53.485Z,24.73
2023-03-30T14:49:43.393Z,29.17
2023-03-30T14:52:38.500Z,30.98
2023-03-30T14:55:26.418Z,29.20
2023-03-30T14:58:15.473Z,31.67
2023-03-30T15:01:16.513Z,28.50
2023-03-30T15:04:15.429Z,27.30
2023-03-30T15:07:01.101Z,26.33
2023-03-30T15:09:47.617Z,31.35
2023-03-30T15:12:40.244Z,28.48
2023-03-30T15:15:31.212Z,34.95
2023-03-30T15:18:21.980Z,24.80
2023-03-30T15:21:13.738Z,36.92
2023-03-30T15:24:00.322Z,23.10
2023-03-30T15:26:49.367Z,24.75
2023-03-30T15:29:35.012Z,25.83
2023-03-30T15:32:39.073Z,22.42
2023-03-30T15:35:28.969Z,21.92
2023-03-30T15:38:17.326Z,24.00
2023-03-30T15:41:11.952Z,19.65
2023-03-30T15:44:08.865Z,22.13
2023-03-30T15:46:58.625Z,21.52
2023-03-30T15:49:50.352Z,28.95
2023-03-30T15:52:37.458Z,17.33
2023-03-30T15:55:28.885Z,21.38
2023-03-30T15:58:20.733Z,23.58
2023-03-30T16:01:08.004Z,27.67
2023-03-30T16:03:56.976Z,24.92
2023-03-30T16:06:44.614Z,13.68
2023-03-30T16:09:31.639Z,16.77
2023-03-30T16:12:25.452Z,18.23
2023-03-30T16:15:19.693Z,20.40
2023-03-30T16:18:05.070Z,21.17
2023-03-30T16:20:51.319Z,20.48
2023-03-30T16:23:40.244Z,21.60
2023-03-30T16:26:25.805Z,25.30
2023-03-30T16:29:21.623Z,24.17
2023-03-30T16:32:07.682Z,21.58
2023-03-30T16:34:54.541Z,22.15
2023-03-30T16:37:40.710Z,20.90
2023-03-30T16:40:40.866Z,24.38
2023-03-30T16:43:27.840Z,25.67
2023-03-30T16:46:16.607Z,25.60
2023-03-30T16:49:01.888Z,23.88
2023-03-30T16:51:48.043Z,24.67
2023-03-30T16:54:36.428Z,24.25
2023-03-30T16:57:21.850Z,26.00
2023-03-30T17:00:22.557Z,24.00
2023-03-30T17:03:09.501Z,25.48
2023-03-30T17:05:55.389Z,26.45
2023-03-30T17:08:43.218Z,24.02
2023-03-30T17:11:29.514Z,28.77
2023-03-30T17:14:16.500Z,21.55
2023-03-30T17:17:02.329Z,30.20
2023-03-30T17:19:47.934Z,17.95
2023-03-30T17:22:33.623Z,27.17
2023-03-30T17:25:26.250Z,24.15
2023-03-30T17:28:27.207Z,25.52
2023-03-30T17:31:19.107Z,26.13
2023-03-30T17:34:06.659Z,21.40
2023-03-30T17:36:52.582Z,29.73
2023-03-30T17:39:37.869Z,21.60
2023-03-30T17:42:23.341Z,26.42
2023-03-30T17:45:09.491Z,29.25
2023-03-30T17:47:55.047Z,33.42
2023-03-30T17:50:43.724Z,30.40
2023-03-30T17:53:29.376Z,24.58
2023-03-30T17:56:14.931Z,30.30
2023-03-30T17:59:00.618Z,26.40
2023-03-30T18:01:45.971Z,26.83
2023-03-30T18:04:31.422Z,30.15
2023-03-30T18:07:24.551Z,31.95
2023-03-30T18:10:36.540Z,28.98
2023-03-30T18:13:26.722Z,27.90
2023-03-30T18:16:17.989Z,28.88
2023-03-30T18:19:03.774Z,36.55
2023-03-30T18:21:48.773Z,36.30
2023-03-30T18:24:34.561Z,37.30
2023-03-30T18:27:20.069Z,26.10
2023-03-30T18:30:24.957Z,26.10
2023-03-30T18:33:10.563Z,33.67
2023-03-30T18:36:04.992Z,41.13
2023-03-30T18:38:50.765Z,41.33
2023-03-30T18:41:36.704Z,32.97
2023-03-30T18:44:22.227Z,30.40
2023-03-30T18:47:09.935Z,40.30
2023-03-30T18:49:55.429Z,33.03
2023-03-30T18:53:05.846Z,31.02
2023-03-30T18:55:54.927Z,38.95
2023-03-30T18:58:45.654Z,35.47
2023-03-30T19:01:32.017Z,42.72
2023-03-30T19:04:17.468Z,48.75
2023-03-30T19:07:03.046Z,38.70
2023-03-30T19:09:53.120Z,33.05
2023-03-30T19:12:40.388Z,33.67
2023-03-30T19:15:29.314Z,38.47
2023-03-30T19:18:15.698Z,37.28
2023-03-30T19:21:01.138Z,31.08
2023-03-30T19:23:51.866Z,42.28
2023-03-30T19:26:37.375Z,37.90
2023-03-30T19:29:23.437Z,40.92
2023-03-30T19:32:09.328Z,37.90
2023-03-30T19:34:56.109Z,34.45
2023-03-30T19:37:42.044Z,40.72
2023-03-30T19:40:27.895Z,30.15
2023-03-30T19:43:13.197Z,37.55
2023-03-30T19:45:58.834Z,37.10
2023-03-30T19:48:44.138Z,39.33
2023-03-30T19:51:30.173Z,35.28
2023-03-30T19:54:16.000Z,46.10
2023-03-30T19:57:01.902Z,35.30
2023-03-30T19:59:48.850Z,38.30
2023-03-30T20:02:47.407Z,30.42
2023-03-30T20:05:33.028Z,42.67
2023-03-30T20:11:08.037Z,47.75
2023-03-30T20:13:53.905Z,45.80
2023-03-30T20:16:39.333Z,42.50
2023-03-30T20:19:29.806Z,37.38
2023-03-30T20:22:15.417Z,42.17
2023-03-30T20:25:00.775Z,48.80
2023-03-30T20:27:46.817Z,50.42
2023-03-30T20:30:32.115Z,40.47
2023-03-30T20:33:18.803Z,48.50
2023-03-30T20:36:06.294Z,46.28
2023-03-30T20:38:51.992Z,35.70
2023-03-30T20:41:40.659Z,38.28
2023-03-30T20:44:32.610Z,43.58
2023-03-30T20:47:23.127Z,30.58
2023-03-30T20:50:10.299Z,43.80
2023-03-30T20:52:56.151Z,42.88
2023-03-30T20:55:43.086Z,42.58
2023-03-30T20:58:29.350Z,32.55
2023-03-30T21:01:25.612Z,36.55
2023-03-30T21:04:11.709Z,45.60
2023-03-30T21:06:57.271Z,39.85
2023-03-30T21:09:42.581Z,43.67
2023-03-30T21:12:29.239Z,41.10
2023-03-30T21:15:15.261Z,41.88
2023-03-30T21:18:00.809Z,37.22
2023-03-30T21:20:56.470Z,31.85
2023-03-30T21:23:45.180Z,32.40
2023-03-30T21:26:31.232Z,40.15
2023-03-30T21:29:16.902Z,26.58
2023-03-30T21:32:02.225Z,37.90
2023-03-30T21:34:49.632Z,44.85
2023-03-30T21:37:35.148Z,36.00
2023-03-30T21:40:24.526Z,42.15
2023-03-30T21:43:09.961Z,37.13
2023-03-30T21:46:01.209Z,41.65
2023-03-30T21:48:51.805Z,48.05
2023-03-30T21:51:38.659Z,37.47
2023-03-30T21:54:24.136Z,32.03
2023-03-30T21:57:09.522Z,34.33
2023-03-30T21:59:55.256Z,42.22
2023-03-30T22:02:43.716Z,43.13
2023-03-30T22:05:29.265Z,43.40
2023-03-30T22:08:16.835Z,45.95
2023-03-30T22:11:08.329Z,39.83
2023-03-30T22:13:58.242Z,42.70
2023-03-30T22:16:43.818Z,29.35
2023-03-30T22:19:31.935Z,38.50
2023-03-30T22:22:17.552Z,39.22
2023-03-30T22:25:03.252Z,38.92
2023-03-30T22:27:49.040Z,30.00
2023-03-30T22:30:35.510Z,28.02
2023-03-30T22:33:21.206Z,52.63
2023-03-30T22:36:15.231Z,43.05
2023-03-30T22:39:04.449Z,33.10
2023-03-30T22:41:52.697Z,39.80
2023-03-30T22:44:41.373Z,39.00
2023-03-30T22:47:27.057Z,34.95
2023-03-30T22:50:12.480Z,41.35
2023-03-30T22:52:58.175Z,35.22
2023-03-30T22:55:46.319Z,47.30
2023-03-30T22:58:31.734Z,38.03
2023-03-30T23:01:19.854Z,31.30
2023-03-30T23:04:06.594Z,53.80
2023-03-30T23:06:52.099Z,39.72
2023-03-30T23:09:38.643Z,40.30
2023-03-30T23:12:25.200Z,34.85
2023-03-30T23:26:13.857Z,34.58
2023-03-30T23:29:01.973Z,35.88
2023-03-30T23:31:51.962Z,39.22
2023-03-30T23:34:37.595Z,47.65
2023-03-30T23:37:23.143Z,36.40
2023-03-30T23:40:09.307Z,32.38
2023-03-30T23:42:57.273Z,48.03
2023-03-30T23:45:43.497Z,35.00
2023-03-30T23:48:29.277Z,29.35
2023-03-30T23:51:14.231Z,32.78
2023-03-30T23:54:06.234Z,32.72
2023-03-30T23:56:57.370Z,31.52
2023-03-30T23:59:42.457Z,27.30
